Time;durP1;ratioP1;P1;durP2;ratioP2;P2;SDS_P1;SDS_P2;PMS_P1;PMS_P2;Temp;Humidity;BMP_temperature;BMP_pressure;BME280_temperature;BME280_humidity;BME280_pressure;Samples;Min_cycle;Max_cycle;Signal;HPM_P1;HPM_P2
2021/05/06 00:01:53;;;;;;;8.13;2.30;;;6.60;99.90;;;;;;5113014;28;20712;-77
2021/05/06 00:04:43;;;;;;;4.23;2.40;;;6.60;99.90;;;;;;5113213;28;20310;-77
2021/05/06 00:07:48;;;;;;;7.87;2.87;;;6.60;99.90;;;;;;5113237;28;20203;-76
2021/05/06 00:29:57;;;;;;;3.90;1.43;;;6.40;99.90;;;;;;5112772;28;20210;-78
2021/05/06 00:32:25;;;;;;;3.43;1.60;;;6.50;99.90;;;;;;5112763;28;20252;-77
2021/05/06 00:34:52;;;;;;;1.77;1.30;;;6.50;99.90;;;;;;5112713;28;20254;-76
2021/05/06 00:37:19;;;;;;;3.27;1.30;;;6.60;99.90;;;;;;5112764;28;20206;-75
2021/05/06 00:39:49;;;;;;;3.10;1.43;;;6.60;99.90;;;;;;5112785;28;20198;-75
2021/05/06 00:42:30;;;;;;;3.20;1.33;;;6.50;99.90;;;;;;5112739;28;20623;-76
2021/05/06 01:02:07;;;;;;;3.97;1.90;;;6.40;99.90;;;;;;5073792;28;20196;-75
2021/05/06 01:04:38;;;;;;;3.83;1.50;;;6.40;99.90;;;;;;5091974;28;20695;-76
2021/05/06 01:07:19;;;;;;;5.40;2.03;;;6.20;99.90;;;;;;5112787;28;20207;-76
2021/05/06 01:09:56;;;;;;;4.10;1.77;;;6.10;99.90;;;;;;5113420;28;20196;-76
2021/05/06 01:12:23;;;;;;;4.33;1.60;;;6.00;99.90;;;;;;5116250;28;20233;-77
2021/05/06 01:14:49;;;;;;;3.90;2.00;;;6.00;99.90;;;;;;5116644;28;20629;-75
2021/05/06 01:17:15;;;;;;;4.67;1.80;;;5.90;99.90;;;;;;5116137;28;20295;-76
2021/05/06 01:19:42;;;;;;;4.47;1.93;;;5.80;99.90;;;;;;5116143;28;20204;-78
2021/05/06 01:22:09;;;;;;;4.90;2.53;;;5.70;99.90;;;;;;5116454;28;20205;-74
2021/05/06 01:24:36;;;;;;;7.67;2.37;;;5.70;99.90;;;;;;5115682;28;20247;-75
2021/05/06 01:27:06;;;;;;;4.53;2.30;;;5.60;99.90;;;;;;5116423;28;20292;-74
2021/05/06 01:29:36;;;;;;;4.23;2.63;;;5.60;99.90;;;;;;5116248;28;20556;-76
2021/05/06 01:32:13;;;;;;;5.13;2.47;;;5.60;99.90;;;;;;5116242;28;20612;-76
2021/05/06 01:34:41;;;;;;;5.97;2.47;;;5.60;99.90;;;;;;5115835;28;20199;-77
2021/05/06 01:37:11;;;;;;;7.80;2.60;;;5.50;99.90;;;;;;5116194;28;20282;-74
2021/05/06 01:39:52;;;;;;;5.60;2.70;;;5.40;99.90;;;;;;5116216;28;20205;-76
2021/05/06 01:42:20;;;;;;;5.30;2.40;;;5.40;99.90;;;;;;5115762;28;20199;-75
2021/05/06 01:45:10;;;;;;;4.93;2.60;;;5.40;99.90;;;;;;5115651;28;20403;-76
2021/05/06 01:47:38;;;;;;;5.73;2.30;;;5.40;99.90;;;;;;5113540;28;20198;-77
2021/05/06 01:50:18;;;;;;;5.47;2.60;;;5.30;99.90;;;;;;5110411;28;20211;-75
2021/05/06 01:58:29;;;;;;;4.73;2.90;;;5.30;99.90;;;;;;5109287;28;20672;-77
2021/05/06 02:00:59;;;;;;;8.13;2.60;;;5.40;99.90;;;;;;5115749;28;20212;-77
2021/05/06 02:03:26;;;;;;;6.93;2.70;;;5.50;99.90;;;;;;5115437;28;20704;-77
2021/05/06 02:05:52;;;;;;;5.60;3.23;;;5.40;99.90;;;;;;5115169;28;20207;-78
2021/05/06 02:08:19;;;;;;;7.30;2.90;;;5.50;99.90;;;;;;5115433;28;20279;-76
2021/05/06 02:10:47;;;;;;;9.97;3.00;;;5.50;99.90;;;;;;5114998;28;20649;-77
2021/05/06 02:13:15;;;;;;;8.53;3.57;;;5.50;99.90;;;;;;5115093;27;20247;-75
2021/05/06 02:15:45;;;;;;;6.53;3.07;;;5.50;99.90;;;;;;5114965;28;20670;-78
2021/05/06 02:18:14;;;;;;;8.70;3.07;;;5.70;99.90;;;;;;5115036;28;20675;-75
2021/05/06 02:20:41;;;;;;;6.27;3.50;;;5.70;99.90;;;;;;5114752;28;20210;-76
2021/05/06 02:23:07;;;;;;;4.03;2.57;;;5.80;99.90;;;;;;5114794;28;20333;-74
2021/05/06 02:25:33;;;;;;;8.47;3.40;;;5.80;99.90;;;;;;5114979;28;20197;-76
2021/05/06 02:28:01;;;;;;;7.23;2.80;;;5.80;99.90;;;;;;5101177;28;20205;-76
2021/05/06 02:30:27;;;;;;;5.17;2.83;;;5.90;99.90;;;;;;5114780;28;20582;-75
2021/05/06 02:32:54;;;;;;;6.67;3.07;;;5.90;99.90;;;;;;5114947;28;20256;-77
2021/05/06 02:35:20;;;;;;;9.37;3.23;;;6.00;99.90;;;;;;5114877;28;20306;-78
2021/05/06 02:37:46;;;;;;;9.00;3.20;;;6.00;99.90;;;;;;5114478;28;20286;-76
2021/05/06 02:40:14;;;;;;;7.03;2.90;;;6.10;99.90;;;;;;5114835;28;20217;-77
2021/05/06 02:42:40;;;;;;;4.87;3.10;;;6.10;99.90;;;;;;5115323;28;20302;-77
2021/05/06 02:45:09;;;;;;;7.43;2.80;;;6.00;99.90;;;;;;5114620;28;20246;-77
2021/05/06 02:47:35;;;;;;;11.17;2.90;;;6.00;99.90;;;;;;5114526;28;20290;-76
2021/05/06 02:50:02;;;;;;;7.30;3.10;;;6.00;99.90;;;;;;5114390;28;20245;-75
2021/05/06 02:52:32;;;;;;;7.47;3.23;;;5.90;99.90;;;;;;5114392;28;20200;-76
2021/05/06 02:55:05;;;;;;;7.83;3.60;;;5.90;99.90;;;;;;5114387;28;20207;-77
2021/05/06 02:57:38;;;;;;;9.97;3.33;;;5.80;99.90;;;;;;5114002;28;20537;-77
2021/05/06 03:02:54;;;;;;;6.93;3.70;;;5.90;99.90;;;;;;5114451;28;20216;-76
2021/05/06 03:05:22;;;;;;;9.10;3.33;;;6.00;99.90;;;;;;5114250;28;20215;-79
2021/05/06 03:07:56;;;;;;;6.60;2.93;;;6.10;99.90;;;;;;5114155;28;20666;-75
2021/05/06 03:10:36;;;;;;;11.90;3.20;;;6.10;99.90;;;;;;5114247;28;20244;-74
2021/05/06 03:24:15;;;;;;;9.83;3.63;;;5.80;99.90;;;;;;5113272;28;20591;-77
2021/05/06 03:26:42;;;;;;;9.33;3.00;;;5.70;99.90;;;;;;5113873;28;20245;-76
2021/05/06 03:29:11;;;;;;;7.63;3.20;;;5.60;99.90;;;;;;5113787;28;20299;-75
2021/05/06 03:42:34;;;;;;;12.00;3.40;;;5.50;99.90;;;;;;5113924;28;20306;-76
2021/05/06 03:45:14;;;;;;;6.33;3.13;;;5.40;99.90;;;;;;5114911;28;20290;-75
2021/05/06 04:15:39;;;;;;;13.60;4.27;;;5.40;99.90;;;;;;5076119;28;20209;-75
2021/05/06 04:18:09;;;;;;;13.77;4.40;;;5.50;99.90;;;;;;5113018;28;20209;-75
2021/05/06 04:26:20;;;;;;;7.60;4.07;;;5.50;99.90;;;;;;5099877;28;20247;-78
2021/05/06 04:37:03;;;;;;;12.17;5.13;;;5.60;99.90;;;;;;5112965;28;20282;-76
2021/05/06 04:39:43;;;;;;;10.40;4.40;;;5.60;99.90;;;;;;5112611;28;20697;-77
2021/05/06 04:53:37;;;;;;;11.67;4.87;;;6.00;99.90;;;;;;5105201;28;20211;-76
2021/05/06 04:56:11;;;;;;;10.27;4.60;;;6.10;99.90;;;;;;5116936;28;20203;-78
2021/05/06 05:04:14;;;;;;;12.53;5.10;;;6.40;99.90;;;;;;5093375;28;20645;-76
2021/05/06 05:06:47;;;;;;;12.23;5.80;;;6.50;99.90;;;;;;5095966;28;20660;-76
2021/05/06 05:09:33;;;;;;;12.93;4.77;;;6.50;99.90;;;;;;5096675;28;20204;-75
2021/05/06 05:12:03;;;;;;;9.63;4.37;;;6.60;99.90;;;;;;5107787;28;20227;-77
2021/05/06 05:14:37;;;;;;;14.30;4.73;;;6.60;99.90;;;;;;5116121;28;20274;-77
2021/05/06 05:20:06;;;;;;;10.10;4.23;;;6.90;99.90;;;;;;5122720;27;20302;-78
2021/05/06 05:25:21;;;;;;;8.30;3.90;;;7.30;99.90;;;;;;5126498;27;20219;-77
2021/05/06 05:27:48;;;;;;;9.73;3.70;;;7.60;99.90;;;;;;5117561;27;20316;-76
2021/05/06 05:30:16;;;;;;;9.03;3.80;;;7.60;99.90;;;;;;5123001;27;20559;-76
2021/05/06 05:32:42;;;;;;;9.23;3.60;;;7.60;99.90;;;;;;5122290;27;20191;-75
2021/05/06 05:35:12;;;;;;;6.67;3.43;;;7.90;99.90;;;;;;5125992;27;20199;-75
2021/05/06 05:37:42;;;;;;;11.87;3.40;;;8.40;99.90;;;;;;5126564;27;20197;-78
2021/05/06 05:40:16;;;;;;;10.13;3.53;;;9.00;99.90;;;;;;5125639;27;20199;-77
2021/05/06 05:42:57;;;;;;;9.57;4.20;;;9.60;99.90;;;;;;5122633;27;20201;-75
2021/05/06 05:56:23;;;;;;;9.63;3.40;;;11.60;99.90;;;;;;5112530;28;20215;-76
2021/05/06 05:58:51;;;;;;;4.97;3.20;;;12.00;99.90;;;;;;5114690;27;20288;-78
2021/05/06 06:01:17;;;;;;;7.47;3.63;;;12.30;99.90;;;;;;5115189;28;20229;-79
2021/05/06 06:03:44;;;;;;;6.23;2.80;;;12.40;99.90;;;;;;5115322;28;20303;-76
2021/05/06 06:06:10;;;;;;;4.60;2.70;;;12.40;99.90;;;;;;5115147;27;20258;-76
2021/05/06 06:08:37;;;;;;;5.00;2.70;;;12.20;99.90;;;;;;5102663;28;20297;-76
2021/05/06 06:11:04;;;;;;;7.70;3.30;;;12.10;99.90;;;;;;5094647;28;20194;-77
2021/05/06 06:13:30;;;;;;;7.53;3.07;;;12.00;99.90;;;;;;5094358;28;20205;-79
2021/05/06 06:16:01;;;;;;;6.53;3.00;;;11.70;99.90;;;;;;5094871;28;20206;-76
2021/05/06 06:18:34;;;;;;;7.70;3.43;;;11.40;99.90;;;;;;5094571;28;20194;-76
2021/05/06 06:21:04;;;;;;;7.47;3.63;;;11.00;99.90;;;;;;5094992;28;20187;-78
2021/05/06 06:23:30;;;;;;;7.70;3.40;;;10.80;99.90;;;;;;5108611;27;20647;-79
2021/05/06 06:25:59;;;;;;;6.00;3.47;;;10.70;99.90;;;;;;5135460;27;20292;-79
2021/05/06 06:28:26;;;;;;;9.27;3.80;;;10.60;99.90;;;;;;5117708;27;20619;-76
2021/05/06 06:30:53;;;;;;;8.30;3.50;;;10.50;99.90;;;;;;5114964;28;20201;-74
2021/05/06 06:33:20;;;;;;;7.93;3.67;;;10.50;99.90;;;;;;5114665;28;20627;-76
2021/05/06 06:35:49;;;;;;;6.47;3.40;;;10.40;99.90;;;;;;5096194;28;20272;-78
2021/05/06 06:38:15;;;;;;;8.67;3.33;;;10.40;99.90;;;;;;5094169;28;20197;-75
2021/05/06 06:40:41;;;;;;;4.47;3.17;;;10.20;99.90;;;;;;5094201;28;20562;-75
2021/05/06 06:43:08;;;;;;;9.27;3.70;;;10.30;99.90;;;;;;5095422;28;20298;-80
2021/05/06 06:45:34;;;;;;;8.97;3.37;;;10.10;99.90;;;;;;5096910;28;20792;-76
2021/05/06 06:48:00;;;;;;;11.43;3.50;;;10.00;99.90;;;;;;5096363;28;20219;-75
2021/05/06 06:50:28;;;;;;;7.57;3.63;;;9.90;99.90;;;;;;5113624;27;20682;-76
2021/05/06 06:52:54;;;;;;;8.93;3.23;;;9.90;99.90;;;;;;5136243;27;20288;-78
2021/05/06 06:55:21;;;;;;;9.13;3.60;;;9.80;99.90;;;;;;5136851;27;20288;-77
2021/05/06 06:57:47;;;;;;;8.87;3.43;;;9.80;99.90;;;;;;5136422;27;20193;-79
2021/05/06 07:00:14;;;;;;;9.67;4.23;;;9.90;99.90;;;;;;5137028;27;20195;-75
2021/05/06 07:02:41;;;;;;;7.27;4.00;;;9.90;99.90;;;;;;5121744;27;20214;-78
2021/05/06 07:05:09;;;;;;;7.27;3.40;;;10.00;99.90;;;;;;5116297;28;20228;-79
2021/05/06 07:07:36;;;;;;;6.73;3.60;;;10.00;99.90;;;;;;5114968;28;20206;-79
2021/05/06 07:10:03;;;;;;;11.50;3.87;;;10.10;99.90;;;;;;5115859;28;20238;-79
2021/05/06 07:12:31;;;;;;;6.30;3.40;;;10.00;99.90;;;;;;5116350;28;20233;-79
2021/05/06 07:14:57;;;;;;;10.33;3.67;;;10.10;99.90;;;;;;5115509;28;20568;-76
2021/05/06 07:17:23;;;;;;;6.17;3.17;;;10.30;99.90;;;;;;5121843;27;20677;-77
2021/05/06 07:19:50;;;;;;;10.30;3.70;;;10.30;99.90;;;;;;5136026;27;20201;-76
2021/05/06 07:22:16;;;;;;;8.13;3.27;;;10.30;99.90;;;;;;5136264;27;20310;-79
2021/05/06 07:24:43;;;;;;;4.60;2.77;;;10.20;99.90;;;;;;5124993;27;20315;-77
2021/05/06 07:27:10;;;;;;;7.33;3.00;;;10.10;99.90;;;;;;5121507;27;20206;-80
2021/05/06 07:29:36;;;;;;;15.13;3.10;;;10.10;99.90;;;;;;5122165;27;20269;-76
2021/05/06 07:32:02;;;;;;;7.50;2.73;;;10.10;99.90;;;;;;5116209;28;20283;-78
2021/05/06 07:34:29;;;;;;;5.77;2.60;;;10.20;99.90;;;;;;5115622;28;20202;-77
2021/05/06 07:36:55;;;;;;;6.77;2.47;;;10.30;99.90;;;;;;5115745;28;20225;-76
2021/05/06 07:39:21;;;;;;;5.33;2.17;;;10.60;99.90;;;;;;5115284;28;20218;-78
2021/05/06 07:41:49;;;;;;;11.20;2.37;;;10.90;99.90;;;;;;5114272;28;20198;-78
2021/05/06 07:44:15;;;;;;;5.33;2.93;;;11.30;99.90;;;;;;5116464;27;20252;-78
2021/05/06 07:46:41;;;;;;;5.43;2.27;;;11.60;99.90;;;;;;5133449;27;20201;-78
2021/05/06 07:49:08;;;;;;;5.53;2.23;;;11.90;99.90;;;;;;5133762;27;20542;-77
2021/05/06 07:51:34;;;;;;;6.57;2.50;;;12.10;99.90;;;;;;5115609;27;20199;-77
2021/05/06 07:54:05;;;;;;;4.63;2.10;;;12.50;99.90;;;;;;5113125;28;20233;-79
2021/05/06 07:56:31;;;;;;;5.50;1.70;;;13.30;99.90;;;;;;5114040;27;20212;-77
2021/05/06 07:58:59;;;;;;;4.13;2.33;;;13.60;99.90;;;;;;5134843;27;20226;-77
2021/05/06 08:01:25;;;;;;;5.90;2.23;;;14.10;99.90;;;;;;5134645;27;20221;-76
2021/05/06 08:03:53;;;;;;;4.33;1.80;;;15.00;99.90;;;;;;5134226;27;20236;-77
2021/05/06 08:06:20;;;;;;;8.03;2.27;;;15.40;99.90;;;;;;5136720;27;20216;-79
2021/05/06 08:08:47;;;;;;;4.70;2.10;;;16.60;99.90;;;;;;5138506;27;20194;-77
2021/05/06 08:11:14;;;;;;;5.70;1.87;;;18.20;99.90;;;;;;5130794;27;20208;-79
2021/05/06 08:13:41;;;;;;;3.03;1.73;;;19.50;99.90;;;;;;5114640;28;20197;-79
2021/05/06 08:16:08;;;;;;;5.13;2.20;;;20.20;99.90;;;;;;5114545;28;20285;-77
2021/05/06 08:18:35;;;;;;;4.87;2.07;;;20.30;99.90;;;;;;5113757;28;20323;-76
2021/05/06 08:21:01;;;;;;;5.50;2.20;;;20.70;99.90;;;;;;5113895;28;20208;-80
2021/05/06 08:23:27;;;;;;;3.60;1.50;;;20.70;99.90;;;;;;5113918;28;20300;-80
2021/05/06 08:25:54;;;;;;;3.87;2.40;;;20.90;99.90;;;;;;5113535;28;20232;-76
2021/05/06 08:28:20;;;;;;;4.27;1.90;;;21.30;99.90;;;;;;5129391;28;20296;-79
2021/05/06 08:30:47;;;;;;;4.20;2.00;;;21.80;99.90;;;;;;5133274;27;20287;-76
2021/05/06 08:33:14;;;;;;;3.93;1.90;;;21.90;99.90;;;;;;5133803;28;20611;-76
2021/05/06 08:35:40;;;;;;;4.87;2.23;;;21.90;99.90;;;;;;5130318;27;20205;-78
2021/05/06 08:38:07;;;;;;;3.63;2.00;;;21.40;99.90;;;;;;5112960;28;20288;-78
2021/05/06 08:40:34;;;;;;;4.80;2.20;;;21.30;99.90;;;;;;5093095;28;20274;-80
2021/05/06 08:43:05;;;;;;;5.20;1.90;;;22.10;99.90;;;;;;5092810;28;20558;-76
2021/05/06 08:45:35;;;;;;;3.60;2.10;;;21.90;99.90;;;;;;5096445;28;20226;-77
2021/05/06 08:48:02;;;;;;;4.33;2.07;;;22.70;99.90;;;;;;5113031;28;20202;-76
2021/05/06 08:50:29;;;;;;;2.90;1.83;;;23.30;99.90;;;;;;5112718;28;20297;-77
2021/05/06 08:52:57;;;;;;;5.93;2.23;;;23.30;99.90;;;;;;5113413;28;20281;-76
2021/05/06 08:55:24;;;;;;;4.23;2.10;;;23.80;99.90;;;;;;5112707;28;20602;-76
2021/05/06 08:57:51;;;;;;;6.57;2.00;;;24.30;99.90;;;;;;5125211;28;20208;-77
2021/05/06 09:00:18;;;;;;;5.65;1.98;;;25.00;99.90;;;;;;5133645;27;20222;-76
2021/05/06 09:02:46;;;;;;;5.30;2.15;;;25.50;99.90;;;;;;5133818;27;20284;-79
2021/05/06 09:05:12;;;;;;;4.68;1.98;;;25.50;99.90;;;;;;5133837;28;20600;-82
2021/05/06 09:07:44;;;;;;;3.60;2.08;;;25.30;99.90;;;;;;5133902;28;20202;-76
2021/05/06 09:10:11;;;;;;;2.88;1.90;;;24.10;99.90;;;;;;5134204;28;20198;-76
2021/05/06 09:12:39;;;;;;;5.37;2.20;;;23.60;99.90;;;;;;5134280;28;20198;-77
2021/05/06 09:15:13;;;;;;;2.47;1.70;;;23.40;99.90;;;;;;5133443;28;20300;-79
2021/05/06 09:17:40;;;;;;;4.07;2.00;;;23.70;99.90;;;;;;5104000;28;20247;-76
2021/05/06 09:20:17;;;;;;;3.17;1.95;;;24.40;99.90;;;;;;5112881;28;20655;-77
2021/05/06 09:22:46;;;;;;;3.83;1.65;;;24.50;99.90;;;;;;5112565;28;20198;-77
2021/05/06 09:25:30;;;;;;;4.88;2.17;;;24.40;99.90;;;;;;5112009;28;20317;-78
2021/05/06 09:28:13;;;;;;;5.65;1.80;;;25.00;99.50;;;;;;5112774;28;20348;-78
2021/05/06 09:30:50;;;;;;;3.40;1.53;;;24.40;99.90;;;;;;5113819;28;20310;-76
2021/05/06 09:33:17;;;;;;;3.77;1.53;;;23.40;98.90;;;;;;5129267;27;20211;-77
2021/05/06 09:35:45;;;;;;;3.43;1.70;;;22.90;99.10;;;;;;5136557;27;20736;-76
2021/05/06 09:38:31;;;;;;;5.23;1.67;;;23.00;99.90;;;;;;5136520;27;20197;-76
2021/05/06 09:41:01;;;;;;;4.10;1.60;;;21.90;99.90;;;;;;5136370;27;20316;-77
2021/05/06 09:43:30;;;;;;;2.80;1.70;;;21.30;99.90;;;;;;5136089;27;20193;-77
2021/05/06 09:45:58;;;;;;;5.07;1.60;;;20.10;99.90;;;;;;5136220;27;20289;-76
2021/05/06 09:48:24;;;;;;;10.07;2.20;;;19.60;99.90;;;;;;5137503;27;20201;-77
2021/05/06 09:50:57;;;;;;;3.37;1.43;;;19.40;99.90;;;;;;5137521;27;20571;-77
2021/05/06 09:53:25;;;;;;;5.87;1.50;;;18.80;99.90;;;;;;5137326;27;20232;-78
2021/05/06 09:55:59;;;;;;;13.03;2.27;;;18.60;99.90;;;;;;5137240;27;20635;-78
2021/05/06 09:58:28;;;;;;;2.90;1.67;;;18.50;99.90;;;;;;5137252;27;20235;-76
2021/05/06 10:00:56;;;;;;;10.63;2.30;;;18.10;99.90;;;;;;5129956;27;20251;-77
2021/05/06 10:03:30;;;;;;;4.57;1.50;;;18.20;99.90;;;;;;5116893;28;20194;-76
2021/05/06 10:05:56;;;;;;;3.90;1.57;;;18.40;99.90;;;;;;5116570;28;20217;-76
2021/05/06 10:08:33;;;;;;;5.67;1.50;;;18.40;99.90;;;;;;5116015;28;20190;-76
2021/05/06 10:11:08;;;;;;;3.40;1.60;;;18.50;99.90;;;;;;5116061;28;20193;-77
2021/05/06 10:13:35;;;;;;;3.83;1.30;;;18.40;99.90;;;;;;5117066;28;20668;-77
2021/05/06 10:16:01;;;;;;;4.10;1.30;;;18.50;99.90;;;;;;5115903;28;20293;-79
2021/05/06 10:18:28;;;;;;;3.70;1.70;;;18.20;99.90;;;;;;5115698;28;20776;-76
2021/05/06 10:20:54;;;;;;;5.20;1.90;;;18.10;99.90;;;;;;5116733;28;20281;-78
2021/05/06 10:23:23;;;;;;;3.87;1.43;;;18.20;99.90;;;;;;5115991;28;20286;-76
2021/05/06 10:25:53;;;;;;;3.83;1.50;;;18.10;99.90;;;;;;5115384;28;20230;-77
2021/05/06 10:28:21;;;;;;;2.37;1.20;;;18.20;99.90;;;;;;5132529;27;20284;-76
2021/05/06 10:30:48;;;;;;;2.80;1.40;;;18.10;99.90;;;;;;5120905;27;20293;-76
2021/05/06 10:33:15;;;;;;;4.53;1.40;;;17.90;99.90;;;;;;5115905;28;20286;-80
2021/05/06 10:35:44;;;;;;;2.50;1.53;;;17.80;99.90;;;;;;5114669;28;20280;-76
2021/05/06 10:38:10;;;;;;;3.17;1.43;;;17.50;99.90;;;;;;5116104;28;20334;-78
2021/05/06 10:40:38;;;;;;;4.97;1.47;;;17.50;99.90;;;;;;5116316;27;20286;-78
2021/05/06 10:43:28;;;;;;;5.63;1.40;;;17.80;99.90;;;;;;5115914;28;20194;-77
2021/05/06 10:45:57;;;;;;;1.20;1.10;;;18.10;99.90;;;;;;5113967;28;20202;-76
2021/05/06 10:48:24;;;;;;;4.97;1.60;;;18.50;99.90;;;;;;5115074;28;20326;-80
2021/05/06 10:50:51;;;;;;;3.70;1.67;;;18.80;99.90;;;;;;5115139;28;20457;-79
2021/05/06 10:53:29;;;;;;;4.37;1.80;;;18.90;99.90;;;;;;5115508;27;20198;-76
2021/05/06 10:55:56;;;;;;;3.90;1.33;;;19.00;99.90;;;;;;5137386;27;20207;-77
2021/05/06 10:58:39;;;;;;;2.20;1.40;;;18.60;99.90;;;;;;5137300;27;20572;-78
2021/05/06 11:01:22;;;;;;;4.33;1.80;;;18.60;99.90;;;;;;5113288;27;20205;-77
2021/05/06 11:04:09;;;;;;;5.03;1.70;;;18.40;99.90;;;;;;5115120;28;20194;-80
2021/05/06 11:06:45;;;;;;;3.30;1.40;;;18.60;99.90;;;;;;5110869;28;20723;-81
2021/05/06 11:09:50;;;;;;;4.60;1.50;;;18.40;99.90;;;;;;5107308;28;20240;-78
2021/05/06 11:12:30;;;;;;;6.13;1.63;;;18.40;99.90;;;;;;5114575;28;20197;-78
2021/05/06 11:15:36;;;;;;;3.40;1.20;;;18.40;99.90;;;;;;5114145;28;20222;-79
2021/05/06 11:18:05;;;;;;;2.57;1.40;;;18.20;99.90;;;;;;5108822;28;20255;-80
2021/05/06 11:20:50;;;;;;;3.50;1.70;;;18.20;99.90;;;;;;5116031;27;20198;-77
2021/05/06 11:23:31;;;;;;;6.90;1.93;;;18.30;99.90;;;;;;5099922;28;20212;-76
2021/05/06 11:26:13;;;;;;;3.37;1.80;;;18.70;99.90;;;;;;5108219;28;20218;-77
2021/05/06 11:29:01;;;;;;;4.90;1.90;;;19.00;99.90;;;;;;5130013;27;20201;-76
2021/05/06 11:31:48;;;;;;;4.50;1.90;;;19.00;99.90;;;;;;5110155;27;20194;-79
2021/05/06 11:34:31;;;;;;;2.20;1.70;;;19.00;99.90;;;;;;5114469;28;20254;-76
2021/05/06 11:37:23;;;;;;;5.53;2.27;;;18.80;99.90;;;;;;5113911;28;20243;-77
2021/05/06 11:40:09;;;;;;;6.00;1.63;;;18.60;99.90;;;;;;5094484;28;20208;-80
2021/05/06 11:42:40;;;;;;;3.27;1.97;;;18.10;99.90;;;;;;5113591;28;20229;-78
2021/05/06 11:45:15;;;;;;;3.80;2.10;;;17.60;99.90;;;;;;5113093;28;20207;-76
2021/05/06 11:47:42;;;;;;;4.07;1.90;;;17.30;99.90;;;;;;5093568;27;20269;-76
2021/05/06 11:50:21;;;;;;;3.50;1.93;;;16.30;99.90;;;;;;5134488;27;20198;-79
2021/05/06 11:52:48;;;;;;;4.27;2.00;;;15.50;99.90;;;;;;5134184;27;20252;-76
2021/05/06 11:55:31;;;;;;;6.13;2.00;;;14.80;99.90;;;;;;5112574;28;20681;-74
2021/05/06 11:57:58;;;;;;;3.07;1.80;;;14.20;99.90;;;;;;5118718;27;20292;-78
2021/05/06 12:00:26;;;;;;;4.67;2.10;;;13.80;99.90;;;;;;5112944;28;20195;-77
2021/05/06 12:03:01;;;;;;;2.73;1.73;;;13.60;99.90;;;;;;5113428;28;20198;-77
2021/05/06 12:05:56;;;;;;;3.07;1.80;;;13.40;99.90;;;;;;5113494;28;20202;-76
2021/05/06 12:08:25;;;;;;;6.90;2.00;;;13.20;99.90;;;;;;5112848;28;20202;-76
2021/05/06 12:10:53;;;;;;;4.30;2.07;;;13.00;99.90;;;;;;5112906;28;20197;-76
2021/05/06 12:13:27;;;;;;;2.40;1.73;;;12.80;99.90;;;;;;5113287;28;20202;-77
2021/05/06 12:15:53;;;;;;;5.40;2.10;;;12.60;99.90;;;;;;5127079;27;20225;-77
2021/05/06 12:18:22;;;;;;;4.40;2.03;;;12.80;99.90;;;;;;5133226;27;20295;-79
2021/05/06 12:20:50;;;;;;;3.57;2.23;;;12.80;99.90;;;;;;5122140;27;20278;-79
2021/05/06 12:23:17;;;;;;;5.17;2.03;;;12.80;99.90;;;;;;5113365;28;20213;-76
2021/05/06 12:25:43;;;;;;;6.33;2.20;;;12.70;99.90;;;;;;5112959;28;20278;-77
2021/05/06 12:28:09;;;;;;;4.23;2.10;;;12.20;99.90;;;;;;5112588;28;20206;-78
2021/05/06 12:30:36;;;;;;;5.43;1.97;;;12.60;99.90;;;;;;5112675;28;20194;-79
2021/05/06 12:33:02;;;;;;;4.17;1.90;;;13.00;99.90;;;;;;5112534;28;20286;-77
2021/05/06 12:35:30;;;;;;;4.70;2.00;;;13.30;99.90;;;;;;5112590;28;20254;-79
2021/05/06 12:37:56;;;;;;;4.30;2.10;;;13.80;99.90;;;;;;5113138;28;20205;-75
2021/05/06 12:40:27;;;;;;;2.80;1.90;;;14.20;99.90;;;;;;5112764;28;20190;-75
2021/05/06 12:42:53;;;;;;;3.87;2.03;;;14.90;99.90;;;;;;5119682;28;20231;-77
2021/05/06 12:45:30;;;;;;;6.57;2.13;;;15.60;99.90;;;;;;5131053;28;20322;-76
2021/05/06 12:47:57;;;;;;;6.80;1.87;;;15.90;99.90;;;;;;5110826;28;20732;-77
2021/05/06 12:50:26;;;;;;;4.83;2.00;;;16.20;99.90;;;;;;5112694;28;20225;-79
2021/05/06 12:52:55;;;;;;;6.03;2.10;;;16.80;99.90;;;;;;5112891;28;20198;-75
2021/05/06 12:55:24;;;;;;;3.77;1.93;;;17.20;99.90;;;;;;5112742;28;20210;-75
2021/05/06 12:58:08;;;;;;;4.90;2.00;;;17.40;99.90;;;;;;5124962;28;20258;-75
2021/05/06 13:00:36;;;;;;;6.30;2.53;;;17.00;99.90;;;;;;5133054;27;20338;-77
2021/05/06 13:03:04;;;;;;;3.50;2.20;;;16.20;99.90;;;;;;5132932;27;20197;-79
2021/05/06 13:05:32;;;;;;;3.70;2.33;;;16.20;99.90;;;;;;5125868;27;20703;-75
2021/05/06 13:07:59;;;;;;;4.70;2.57;;;16.40;99.90;;;;;;5116295;28;20624;-74
2021/05/06 13:10:34;;;;;;;6.73;2.40;;;16.30;99.90;;;;;;5129049;27;20280;-76
2021/05/06 13:13:01;;;;;;;6.40;2.27;;;16.70;99.90;;;;;;5137003;27;20350;-76
2021/05/06 13:15:28;;;;;;;6.40;2.53;;;15.80;99.90;;;;;;5117663;27;20357;-76
2021/05/06 13:17:57;;;;;;;6.03;2.43;;;15.50;99.90;;;;;;5116924;28;20205;-75
2021/05/06 13:20:26;;;;;;;5.73;2.60;;;15.80;99.90;;;;;;5116422;28;20555;-76
2021/05/06 13:23:05;;;;;;;6.00;2.97;;;16.00;99.90;;;;;;5116260;28;20199;-76
2021/05/06 13:25:45;;;;;;;8.80;3.07;;;16.00;99.90;;;;;;5113817;28;20233;-79
2021/05/06 13:28:15;;;;;;;6.77;2.50;;;15.80;99.90;;;;;;5120091;27;20288;-74
2021/05/06 13:30:41;;;;;;;7.13;2.67;;;15.70;99.90;;;;;;5115131;28;20224;-75
2021/05/06 13:33:19;;;;;;;6.77;2.50;;;15.80;99.90;;;;;;5115793;28;20295;-78
2021/05/06 13:36:01;;;;;;;10.57;2.77;;;15.70;99.90;;;;;;5119313;27;20201;-75
2021/05/06 13:38:56;;;;;;;6.27;2.90;;;15.50;99.90;;;;;;5136924;27;20186;-77
2021/05/06 13:41:24;;;;;;;6.73;2.60;;;15.30;99.90;;;;;;5135584;27;20238;-77
2021/05/06 13:43:51;;;;;;;7.73;3.03;;;15.20;99.90;;;;;;5118576;27;20216;-75
2021/05/06 13:46:18;;;;;;;8.70;2.80;;;15.00;99.90;;;;;;5126294;27;20222;-76
2021/05/06 13:48:44;;;;;;;7.80;2.83;;;15.20;99.90;;;;;;5115751;28;20688;-73
2021/05/06 13:51:12;;;;;;;6.13;2.87;;;15.20;99.90;;;;;;5116041;28;20222;-75
2021/05/06 13:53:39;;;;;;;5.73;2.30;;;15.30;99.90;;;;;;5114483;28;20285;-75
2021/05/06 13:56:07;;;;;;;4.20;2.20;;;15.30;99.90;;;;;;5115524;28;20664;-75
2021/05/06 13:58:33;;;;;;;5.80;2.47;;;15.30;99.90;;;;;;5115031;28;20301;-74
2021/05/06 14:01:00;;;;;;;8.50;2.77;;;15.30;99.90;;;;;;5116283;28;20630;-75
2021/05/06 14:03:27;;;;;;;4.93;2.37;;;15.50;99.90;;;;;;5116617;28;20294;-75
2021/05/06 14:05:54;;;;;;;5.27;2.20;;;15.70;99.90;;;;;;5115036;28;20309;-75
2021/05/06 14:08:20;;;;;;;4.73;2.40;;;15.80;99.90;;;;;;5115874;28;20634;-76
2021/05/06 14:10:47;;;;;;;7.43;2.70;;;15.70;99.90;;;;;;5103247;28;20289;-77
2021/05/06 14:13:15;;;;;;;10.73;2.53;;;15.80;99.90;;;;;;5095193;28;20191;-75
2021/05/06 14:15:42;;;;;;;7.27;2.50;;;15.60;99.90;;;;;;5095041;28;20202;-76
2021/05/06 14:18:09;;;;;;;11.43;2.70;;;15.70;99.90;;;;;;5094262;28;20194;-78
2021/05/06 14:20:35;;;;;;;5.00;2.20;;;15.50;99.90;;;;;;5094977;28;20195;-78
2021/05/06 14:23:02;;;;;;;5.73;2.47;;;15.30;99.90;;;;;;5094655;28;20292;-76
2021/05/06 14:25:28;;;;;;;7.10;2.53;;;14.90;99.90;;;;;;5114660;28;20218;-76
2021/05/06 14:27:58;;;;;;;5.87;2.67;;;14.60;99.90;;;;;;5114996;28;20536;-77
2021/05/06 14:30:25;;;;;;;7.23;2.60;;;14.50;99.90;;;;;;5114698;28;20197;-75
2021/05/06 14:32:51;;;;;;;8.27;2.57;;;14.40;99.90;;;;;;5114526;28;20198;-76
2021/05/06 14:35:18;;;;;;;6.97;3.07;;;14.60;99.90;;;;;;5114765;27;20201;-78
2021/05/06 14:37:44;;;;;;;7.87;2.10;;;14.50;99.90;;;;;;5100180;28;20246;-75
2021/05/06 14:40:12;;;;;;;5.40;2.23;;;14.40;99.90;;;;;;5094593;28;20194;-78
2021/05/06 14:42:38;;;;;;;5.60;2.23;;;14.60;99.90;;;;;;5110877;28;20262;-75
2021/05/06 14:45:08;;;;;;;9.50;2.30;;;14.70;99.90;;;;;;5114320;28;20229;-75
2021/05/06 14:47:36;;;;;;;5.57;1.67;;;14.80;99.90;;;;;;5114587;28;20621;-77
2021/05/06 14:50:03;;;;;;;4.40;1.87;;;15.00;99.90;;;;;;5114522;28;20330;-74
2021/05/06 14:52:29;;;;;;;4.17;1.80;;;15.20;99.90;;;;;;5114291;28;20289;-79
2021/05/06 14:54:56;;;;;;;7.33;2.47;;;15.20;99.90;;;;;;5114428;28;20198;-75
2021/05/06 14:57:22;;;;;;;9.43;2.47;;;15.30;99.90;;;;;;5114448;28;20335;-75
2021/05/06 14:59:48;;;;;;;3.87;2.33;;;15.30;99.90;;;;;;5114814;27;20558;-77
2021/05/06 15:02:15;;;;;;;6.67;2.30;;;15.40;99.90;;;;;;5114315;28;20236;-78
2021/05/06 15:04:42;;;;;;;6.00;2.17;;;15.20;99.90;;;;;;5113917;28;20222;-76
2021/05/06 15:07:08;;;;;;;8.30;2.60;;;15.30;99.90;;;;;;5114678;28;20280;-79
2021/05/06 15:09:35;;;;;;;6.47;2.13;;;15.20;99.90;;;;;;5114507;28;20198;-80
2021/05/06 15:12:01;;;;;;;5.83;2.30;;;14.90;99.90;;;;;;5114464;28;20222;-76
2021/05/06 15:14:28;;;;;;;8.63;2.97;;;14.70;99.90;;;;;;5114214;28;20198;-75
2021/05/06 15:16:54;;;;;;;6.13;2.70;;;14.70;99.90;;;;;;5114194;27;20199;-76
2021/05/06 15:19:21;;;;;;;6.67;2.90;;;14.50;99.90;;;;;;5114451;28;20636;-75
2021/05/06 15:21:48;;;;;;;7.93;2.60;;;14.30;99.90;;;;;;5113819;28;20218;-75
2021/05/06 15:24:14;;;;;;;10.73;2.63;;;14.00;99.90;;;;;;5114245;28;20713;-78
2021/05/06 15:26:41;;;;;;;4.67;2.17;;;13.80;99.90;;;;;;5113924;28;20567;-74